sensor_id;sensor_type;location;lat;lon;timestamp;temperature;humidity
33580;DHT22;19909;43.644;-79.438;2024-01-27T00:00:52;21.90;31.00
33580;DHT22;19909;43.644;-79.438;2024-01-27T00:03:18;21.90;31.20
33580;DHT22;19909;43.644;-79.438;2024-01-27T00:05:45;21.80;31.10
33580;DHT22;19909;43.644;-79.438;2024-01-27T00:08:11;21.80;31.20
33580;DHT22;19909;43.644;-79.438;2024-01-27T00:10:38;21.80;31.20
33580;DHT22;19909;43.644;-79.438;2024-01-27T00:13:06;21.80;31.30
33580;DHT22;19909;43.644;-79.438;2024-01-27T00:15:32;21.80;31.20
33580;DHT22;19909;43.644;-79.438;2024-01-27T00:17:58;21.90;31.20
33580;DHT22;19909;43.644;-79.438;2024-01-27T00:20:24;22.00;31.10
33580;DHT22;19909;43.644;-79.438;2024-01-27T00:22:51;22.20;31.20
33580;DHT22;19909;43.644;-79.438;2024-01-27T00:25:18;22.30;31.10
33580;DHT22;19909;43.644;-79.438;2024-01-27T00:27:45;22.40;31.00
33580;DHT22;19909;43.644;-79.438;2024-01-27T00:30:12;22.40;30.90
33580;DHT22;19909;43.644;-79.438;2024-01-27T00:32:39;22.40;30.90
33580;DHT22;19909;43.644;-79.438;2024-01-27T00:35:07;22.40;30.90
33580;DHT22;19909;43.644;-79.438;2024-01-27T00:37:35;22.30;31.00
33580;DHT22;19909;43.644;-79.438;2024-01-27T00:40:02;22.30;31.00
33580;DHT22;19909;43.644;-79.438;2024-01-27T00:42:30;22.20;31.00
33580;DHT22;19909;43.644;-79.438;2024-01-27T00:44:57;22.10;31.10
33580;DHT22;19909;43.644;-79.438;2024-01-27T00:47:23;22.10;31.20
33580;DHT22;19909;43.644;-79.438;2024-01-27T00:49:54;22.00;31.10
33580;DHT22;19909;43.644;-79.438;2024-01-27T00:52:23;21.90;31.20
33580;DHT22;19909;43.644;-79.438;2024-01-27T00:54:50;21.90;31.30
33580;DHT22;19909;43.644;-79.438;2024-01-27T00:57:16;21.80;31.30
33580;DHT22;19909;43.644;-79.438;2024-01-27T00:59:42;21.80;31.40
33580;DHT22;19909;43.644;-79.438;2024-01-27T01:02:11;21.80;31.40
33580;DHT22;19909;43.644;-79.438;2024-01-27T01:04:38;21.80;31.30
33580;DHT22;19909;43.644;-79.438;2024-01-27T01:07:04;21.80;31.30
33580;DHT22;19909;43.644;-79.438;2024-01-27T01:09:30;22.00;31.30
33580;DHT22;19909;43.644;-79.438;2024-01-27T01:11:57;22.00;31.30
33580;DHT22;19909;43.644;-79.438;2024-01-27T01:14:23;22.10;31.30
33580;DHT22;19909;43.644;-79.438;2024-01-27T01:16:51;22.10;31.30
33580;DHT22;19909;43.644;-79.438;2024-01-27T01:19:18;22.00;31.30
33580;DHT22;19909;43.644;-79.438;2024-01-27T01:21:45;22.00;31.30
33580;DHT22;19909;43.644;-79.438;2024-01-27T01:24:12;21.90;31.20
33580;DHT22;19909;43.644;-79.438;2024-01-27T01:26:41;21.90;31.30
33580;DHT22;19909;43.644;-79.438;2024-01-27T01:29:11;21.80;31.30
33580;DHT22;19909;43.644;-79.438;2024-01-27T01:31:44;21.80;31.40
33580;DHT22;19909;43.644;-79.438;2024-01-27T01:34:10;21.70;31.40
33580;DHT22;19909;43.644;-79.438;2024-01-27T01:36:37;21.70;31.40
33580;DHT22;19909;43.644;-79.438;2024-01-27T01:39:04;21.70;31.40
33580;DHT22;19909;43.644;-79.438;2024-01-27T01:41:30;21.70;31.40
33580;DHT22;19909;43.644;-79.438;2024-01-27T01:43:57;21.70;31.40
33580;DHT22;19909;43.644;-79.438;2024-01-27T01:46:23;21.80;31.30
33580;DHT22;19909;43.644;-79.438;2024-01-27T01:48:50;21.90;31.30
33580;DHT22;19909;43.644;-79.438;2024-01-27T01:51:17;22.00;31.30
33580;DHT22;19909;43.644;-79.438;2024-01-27T01:53:48;22.20;31.20
33580;DHT22;19909;43.644;-79.438;2024-01-27T01:56:18;22.30;31.10
33580;DHT22;19909;43.644;-79.438;2024-01-27T01:58:45;22.30;31.10
33580;DHT22;19909;43.644;-79.438;2024-01-27T02:01:12;22.20;31.00
33580;DHT22;19909;43.644;-79.438;2024-01-27T02:03:38;22.20;31.10
33580;DHT22;19909;43.644;-79.438;2024-01-27T02:06:05;22.10;31.10
33580;DHT22;19909;43.644;-79.438;2024-01-27T02:08:31;22.10;31.20
33580;DHT22;19909;43.644;-79.438;2024-01-27T02:10:58;22.00;31.20
33580;DHT22;19909;43.644;-79.438;2024-01-27T02:13:24;22.00;31.90
33580;DHT22;19909;43.644;-79.438;2024-01-27T02:15:55;21.90;31.30
33580;DHT22;19909;43.644;-79.438;2024-01-27T02:18:26;21.80;31.20
33580;DHT22;19909;43.644;-79.438;2024-01-27T02:20:53;21.90;31.30
33580;DHT22;19909;43.644;-79.438;2024-01-27T02:23:28;21.90;31.20
33580;DHT22;19909;43.644;-79.438;2024-01-27T02:25:54;22.00;31.20
33580;DHT22;19909;43.644;-79.438;2024-01-27T02:28:24;22.00;31.10
33580;DHT22;19909;43.644;-79.438;2024-01-27T02:30:51;22.20;31.10
33580;DHT22;19909;43.644;-79.438;2024-01-27T02:33:21;22.30;31.00
33580;DHT22;19909;43.644;-79.438;2024-01-27T02:35:51;22.40;30.90
33580;DHT22;19909;43.644;-79.438;2024-01-27T02:38:19;22.40;30.90
33580;DHT22;19909;43.644;-79.438;2024-01-27T02:40:49;22.40;30.90
33580;DHT22;19909;43.644;-79.438;2024-01-27T02:43:15;22.30;30.90
33580;DHT22;19909;43.644;-79.438;2024-01-27T02:45:42;22.30;31.00
33580;DHT22;19909;43.644;-79.438;2024-01-27T02:48:08;22.20;31.00
33580;DHT22;19909;43.644;-79.438;2024-01-27T02:50:34;22.10;31.00
33580;DHT22;19909;43.644;-79.438;2024-01-27T02:53:04;22.10;31.10
33580;DHT22;19909;43.644;-79.438;2024-01-27T02:55:30;22.00;31.10
33580;DHT22;19909;43.644;-79.438;2024-01-27T02:57:56;21.90;31.10
33580;DHT22;19909;43.644;-79.438;2024-01-27T03:00:22;21.90;31.20
33580;DHT22;19909;43.644;-79.438;2024-01-27T03:02:49;21.90;31.10
33580;DHT22;19909;43.644;-79.438;2024-01-27T03:05:15;22.00;31.10
33580;DHT22;19909;43.644;-79.438;2024-01-27T03:07:41;22.10;31.00
33580;DHT22;19909;43.644;-79.438;2024-01-27T03:10:08;22.20;31.00
33580;DHT22;19909;43.644;-79.438;2024-01-27T03:12:37;22.20;31.00
33580;DHT22;19909;43.644;-79.438;2024-01-27T03:15:05;22.20;31.00
33580;DHT22;19909;43.644;-79.438;2024-01-27T03:17:31;22.10;31.00
33580;DHT22;19909;43.644;-79.438;2024-01-27T03:20:05;22.10;31.00
33580;DHT22;19909;43.644;-79.438;2024-01-27T03:22:34;22.00;31.00
33580;DHT22;19909;43.644;-79.438;2024-01-27T03:25:04;21.90;31.00
33580;DHT22;19909;43.644;-79.438;2024-01-27T03:27:30;21.90;31.00
33580;DHT22;19909;43.644;-79.438;2024-01-27T03:30:00;22.00;31.00
33580;DHT22;19909;43.644;-79.438;2024-01-27T03:32:32;22.00;31.00
33580;DHT22;19909;43.644;-79.438;2024-01-27T03:35:03;22.00;30.90
33580;DHT22;19909;43.644;-79.438;2024-01-27T03:37:33;22.10;30.90
33580;DHT22;19909;43.644;-79.438;2024-01-27T03:40:02;22.20;30.90
33580;DHT22;19909;43.644;-79.438;2024-01-27T03:42:34;22.20;31.00
33580;DHT22;19909;43.644;-79.438;2024-01-27T03:45:00;22.20;31.00
33580;DHT22;19909;43.644;-79.438;2024-01-27T03:47:26;22.10;31.00
33580;DHT22;19909;43.644;-79.438;2024-01-27T03:49:53;22.10;31.00
33580;DHT22;19909;43.644;-79.438;2024-01-27T03:52:20;22.00;30.90
33580;DHT22;19909;43.644;-79.438;2024-01-27T03:54:46;22.10;30.90
33580;DHT22;19909;43.644;-79.438;2024-01-27T03:57:12;22.10;30.90
33580;DHT22;19909;43.644;-79.438;2024-01-27T03:59:42;22.10;30.80
33580;DHT22;19909;43.644;-79.438;2024-01-27T04:02:08;22.20;30.70
33580;DHT22;19909;43.644;-79.438;2024-01-27T04:04:35;22.30;30.70
33580;DHT22;19909;43.644;-79.438;2024-01-27T04:07:01;22.40;30.60
33580;DHT22;19909;43.644;-79.438;2024-01-27T04:09:29;22.50;30.60
33580;DHT22;19909;43.644;-79.438;2024-01-27T04:11:58;22.50;30.70
33580;DHT22;19909;43.644;-79.438;2024-01-27T04:14:28;22.40;31.20
33580;DHT22;19909;43.644;-79.438;2024-01-27T04:16:59;22.30;30.70
33580;DHT22;19909;43.644;-79.438;2024-01-27T04:19:25;22.30;30.80
33580;DHT22;19909;43.644;-79.438;2024-01-27T04:21:51;22.20;30.80
33580;DHT22;19909;43.644;-79.438;2024-01-27T04:24:17;22.10;30.80
33580;DHT22;19909;43.644;-79.438;2024-01-27T04:26:44;22.10;30.90
33580;DHT22;19909;43.644;-79.438;2024-01-27T04:29:10;22.00;30.90
33580;DHT22;19909;43.644;-79.438;2024-01-27T04:31:41;22.00;30.90
33580;DHT22;19909;43.644;-79.438;2024-01-27T04:34:08;22.00;30.80
33580;DHT22;19909;43.644;-79.438;2024-01-27T04:36:34;22.10;30.80
33580;DHT22;19909;43.644;-79.438;2024-01-27T04:39:00;22.20;30.80
33580;DHT22;19909;43.644;-79.438;2024-01-27T04:41:27;22.20;30.70
33580;DHT22;19909;43.644;-79.438;2024-01-27T04:43:53;22.20;30.70
33580;DHT22;19909;43.644;-79.438;2024-01-27T04:46:22;22.20;30.80
33580;DHT22;19909;43.644;-79.438;2024-01-27T04:48:48;22.20;30.80
33580;DHT22;19909;43.644;-79.438;2024-01-27T04:51:15;22.10;30.90
33580;DHT22;19909;43.644;-79.438;2024-01-27T04:53:41;22.10;30.80
33580;DHT22;19909;43.644;-79.438;2024-01-27T04:56:07;22.10;30.90
33580;DHT22;19909;43.644;-79.438;2024-01-27T04:58:37;22.10;30.80
33580;DHT22;19909;43.644;-79.438;2024-01-27T05:01:04;22.10;30.80
33580;DHT22;19909;43.644;-79.438;2024-01-27T05:03:30;22.20;30.70
33580;DHT22;19909;43.644;-79.438;2024-01-27T05:05:56;22.30;30.70
33580;DHT22;19909;43.644;-79.438;2024-01-27T05:08:22;22.40;30.60
33580;DHT22;19909;43.644;-79.438;2024-01-27T05:10:48;22.50;30.60
33580;DHT22;19909;43.644;-79.438;2024-01-27T05:13:14;22.60;30.40
33580;DHT22;19909;43.644;-79.438;2024-01-27T05:15:41;22.60;30.40
33580;DHT22;19909;43.644;-79.438;2024-01-27T05:18:07;22.60;30.50
33580;DHT22;19909;43.644;-79.438;2024-01-27T05:20:33;22.50;30.50
33580;DHT22;19909;43.644;-79.438;2024-01-27T05:22:59;22.40;30.50
33580;DHT22;19909;43.644;-79.438;2024-01-27T05:25:26;22.30;30.50
33580;DHT22;19909;43.644;-79.438;2024-01-27T05:27:52;22.30;30.70
33580;DHT22;19909;43.644;-79.438;2024-01-27T05:30:18;22.20;30.70
33580;DHT22;19909;43.644;-79.438;2024-01-27T05:32:45;22.20;30.80
33580;DHT22;19909;43.644;-79.438;2024-01-27T05:35:11;22.10;30.90
33580;DHT22;19909;43.644;-79.438;2024-01-27T05:37:38;22.00;30.80
33580;DHT22;19909;43.644;-79.438;2024-01-27T05:40:07;22.00;30.80
33580;DHT22;19909;43.644;-79.438;2024-01-27T05:42:34;22.10;30.80
33580;DHT22;19909;43.644;-79.438;2024-01-27T05:45:00;22.10;30.80
33580;DHT22;19909;43.644;-79.438;2024-01-27T05:47:27;22.20;30.70
33580;DHT22;19909;43.644;-79.438;2024-01-27T05:49:54;22.30;30.70
33580;DHT22;19909;43.644;-79.438;2024-01-27T05:52:21;22.40;30.60
33580;DHT22;19909;43.644;-79.438;2024-01-27T05:54:48;22.50;30.50
33580;DHT22;19909;43.644;-79.438;2024-01-27T05:57:14;22.60;30.50
33580;DHT22;19909;43.644;-79.438;2024-01-27T05:59:41;22.50;30.50
33580;DHT22;19909;43.644;-79.438;2024-01-27T06:02:07;22.50;30.50
33580;DHT22;19909;43.644;-79.438;2024-01-27T06:04:33;22.40;30.50
33580;DHT22;19909;43.644;-79.438;2024-01-27T06:07:00;22.40;30.60
33580;DHT22;19909;43.644;-79.438;2024-01-27T06:09:26;22.30;30.70
33580;DHT22;19909;43.644;-79.438;2024-01-27T06:11:52;22.20;30.70
33580;DHT22;19909;43.644;-79.438;2024-01-27T06:14:19;22.20;30.80
33580;DHT22;19909;43.644;-79.438;2024-01-27T06:16:45;22.10;30.80
33580;DHT22;19909;43.644;-79.438;2024-01-27T06:19:11;22.00;30.80
33580;DHT22;19909;43.644;-79.438;2024-01-27T06:21:39;22.00;30.90
33580;DHT22;19909;43.644;-79.438;2024-01-27T06:24:05;22.00;30.90
33580;DHT22;19909;43.644;-79.438;2024-01-27T06:26:32;22.00;30.80
33580;DHT22;19909;43.644;-79.438;2024-01-27T06:28:59;22.10;30.80
33580;DHT22;19909;43.644;-79.438;2024-01-27T06:31:26;22.20;30.70
33580;DHT22;19909;43.644;-79.438;2024-01-27T06:33:52;22.30;30.70
33580;DHT22;19909;43.644;-79.438;2024-01-27T06:36:18;22.40;30.60
33580;DHT22;19909;43.644;-79.438;2024-01-27T06:38:46;22.40;30.40
33580;DHT22;19909;43.644;-79.438;2024-01-27T06:41:12;22.50;30.50
33580;DHT22;19909;43.644;-79.438;2024-01-27T06:43:38;22.40;30.50
33580;DHT22;19909;43.644;-79.438;2024-01-27T06:46:05;22.40;30.60
33580;DHT22;19909;43.644;-79.438;2024-01-27T06:48:31;22.30;30.60
33580;DHT22;19909;43.644;-79.438;2024-01-27T06:50:59;22.20;30.60
33580;DHT22;19909;43.644;-79.438;2024-01-27T06:53:25;22.20;30.70
33580;DHT22;19909;43.644;-79.438;2024-01-27T06:55:51;22.10;30.80
33580;DHT22;19909;43.644;-79.438;2024-01-27T06:58:18;22.10;30.90
33580;DHT22;19909;43.644;-79.438;2024-01-27T07:00:45;22.00;30.80
33580;DHT22;19909;43.644;-79.438;2024-01-27T07:03:11;22.00;30.80
33580;DHT22;19909;43.644;-79.438;2024-01-27T07:05:38;22.00;30.80
33580;DHT22;19909;43.644;-79.438;2024-01-27T07:08:09;22.10;30.80
33580;DHT22;19909;43.644;-79.438;2024-01-27T07:10:36;22.20;30.70
33580;DHT22;19909;43.644;-79.438;2024-01-27T07:13:02;22.30;30.70
33580;DHT22;19909;43.644;-79.438;2024-01-27T07:15:28;22.40;30.70
33580;DHT22;19909;43.644;-79.438;2024-01-27T07:17:56;22.50;30.50
33580;DHT22;19909;43.644;-79.438;2024-01-27T07:20:24;22.50;30.40
33580;DHT22;19909;43.644;-79.438;2024-01-27T07:22:50;22.50;30.50
33580;DHT22;19909;43.644;-79.438;2024-01-27T07:25:17;22.50;30.50
33580;DHT22;19909;43.644;-79.438;2024-01-27T07:27:43;22.40;30.50
33580;DHT22;19909;43.644;-79.438;2024-01-27T07:30:10;22.40;30.60
33580;DHT22;19909;43.644;-79.438;2024-01-27T07:32:37;22.30;30.60
33580;DHT22;19909;43.644;-79.438;2024-01-27T07:35:04;22.20;30.70
33580;DHT22;19909;43.644;-79.438;2024-01-27T07:37:31;22.10;30.80
33580;DHT22;19909;43.644;-79.438;2024-01-27T07:39:58;22.10;30.80
33580;DHT22;19909;43.644;-79.438;2024-01-27T07:42:24;22.00;30.90
33580;DHT22;19909;43.644;-79.438;2024-01-27T07:44:50;21.90;30.90
33580;DHT22;19909;43.644;-79.438;2024-01-27T07:47:16;21.90;30.90
33580;DHT22;19909;43.644;-79.438;2024-01-27T07:49:43;21.90;30.80
33580;DHT22;19909;43.644;-79.438;2024-01-27T07:52:11;22.00;30.80
33580;DHT22;19909;43.644;-79.438;2024-01-27T07:54:37;22.10;30.80
33580;DHT22;19909;43.644;-79.438;2024-01-27T07:57:06;22.20;30.70
33580;DHT22;19909;43.644;-79.438;2024-01-27T07:59:33;22.30;30.70
33580;DHT22;19909;43.644;-79.438;2024-01-27T08:02:00;22.40;30.60
33580;DHT22;19909;43.644;-79.438;2024-01-27T08:04:26;22.40;30.50
33580;DHT22;19909;43.644;-79.438;2024-01-27T08:06:53;22.40;30.60
33580;DHT22;19909;43.644;-79.438;2024-01-27T08:09:20;22.40;30.60
33580;DHT22;19909;43.644;-79.438;2024-01-27T08:11:46;22.30;30.60
33580;DHT22;19909;43.644;-79.438;2024-01-27T08:14:17;22.30;30.70
33580;DHT22;19909;43.644;-79.438;2024-01-27T08:16:44;22.20;30.70
33580;DHT22;19909;43.644;-79.438;2024-01-27T08:19:10;22.20;30.80
33580;DHT22;19909;43.644;-79.438;2024-01-27T08:21:36;22.10;30.80
33580;DHT22;19909;43.644;-79.438;2024-01-27T08:24:03;22.00;30.90
33580;DHT22;19909;43.644;-79.438;2024-01-27T08:26:29;21.90;30.90
33580;DHT22;19909;43.644;-79.438;2024-01-27T08:28:58;21.90;30.90
33580;DHT22;19909;43.644;-79.438;2024-01-27T08:31:25;21.90;30.90
33580;DHT22;19909;43.644;-79.438;2024-01-27T08:33:51;22.00;30.80
33580;DHT22;19909;43.644;-79.438;2024-01-27T08:36:18;22.10;30.80
33580;DHT22;19909;43.644;-79.438;2024-01-27T08:38:44;22.20;30.70
33580;DHT22;19909;43.644;-79.438;2024-01-27T08:41:10;22.30;30.70
33580;DHT22;19909;43.644;-79.438;2024-01-27T08:43:37;22.40;30.60
33580;DHT22;19909;43.644;-79.438;2024-01-27T08:46:04;22.40;30.50
33580;DHT22;19909;43.644;-79.438;2024-01-27T08:48:31;22.40;30.60
33580;DHT22;19909;43.644;-79.438;2024-01-27T08:50:57;22.40;30.60
33580;DHT22;19909;43.644;-79.438;2024-01-27T08:53:23;22.30;30.60
33580;DHT22;19909;43.644;-79.438;2024-01-27T08:55:49;22.30;30.70
33580;DHT22;19909;43.644;-79.438;2024-01-27T08:58:15;22.20;30.80
33580;DHT22;19909;43.644;-79.438;2024-01-27T09:00:42;22.20;30.80
33580;DHT22;19909;43.644;-79.438;2024-01-27T09:03:08;22.10;30.80
33580;DHT22;19909;43.644;-79.438;2024-01-27T09:05:34;22.00;30.90
33580;DHT22;19909;43.644;-79.438;2024-01-27T09:08:01;22.00;31.00
33580;DHT22;19909;43.644;-79.438;2024-01-27T09:10:27;21.90;31.00
33580;DHT22;19909;43.644;-79.438;2024-01-27T09:12:54;21.90;30.90
33580;DHT22;19909;43.644;-79.438;2024-01-27T09:15:21;22.00;30.90
33580;DHT22;19909;43.644;-79.438;2024-01-27T09:17:47;22.10;30.80
33580;DHT22;19909;43.644;-79.438;2024-01-27T09:20:14;22.10;30.80
33580;DHT22;19909;43.644;-79.438;2024-01-27T09:22:41;22.30;30.70
33580;DHT22;19909;43.644;-79.438;2024-01-27T09:25:08;22.30;30.60
33580;DHT22;19909;43.644;-79.438;2024-01-27T09:27:34;22.40;30.50
33580;DHT22;19909;43.644;-79.438;2024-01-27T09:30:01;22.50;30.50
33580;DHT22;19909;43.644;-79.438;2024-01-27T09:32:29;22.50;30.60
33580;DHT22;19909;43.644;-79.438;2024-01-27T09:34:55;22.40;30.60
33580;DHT22;19909;43.644;-79.438;2024-01-27T09:37:22;22.30;30.60
33580;DHT22;19909;43.644;-79.438;2024-01-27T09:39:48;22.30;30.70
33580;DHT22;19909;43.644;-79.438;2024-01-27T09:42:15;22.20;30.80
33580;DHT22;19909;43.644;-79.438;2024-01-27T09:44:44;22.10;30.80
33580;DHT22;19909;43.644;-79.438;2024-01-27T09:47:12;22.10;30.90
33580;DHT22;19909;43.644;-79.438;2024-01-27T09:49:43;22.00;30.90
33580;DHT22;19909;43.644;-79.438;2024-01-27T09:52:11;22.00;30.90
33580;DHT22;19909;43.644;-79.438;2024-01-27T09:54:37;22.00;30.90
33580;DHT22;19909;43.644;-79.438;2024-01-27T09:57:06;22.00;30.80
33580;DHT22;19909;43.644;-79.438;2024-01-27T09:59:35;22.10;30.80
33580;DHT22;19909;43.644;-79.438;2024-01-27T10:02:04;22.20;30.70
33580;DHT22;19909;43.644;-79.438;2024-01-27T10:04:32;22.30;30.80
33580;DHT22;19909;43.644;-79.438;2024-01-27T10:06:59;22.40;30.60
33580;DHT22;19909;43.644;-79.438;2024-01-27T10:09:26;22.50;30.50
33580;DHT22;19909;43.644;-79.438;2024-01-27T10:11:54;22.50;30.60
33580;DHT22;19909;43.644;-79.438;2024-01-27T10:14:21;22.40;30.60
33580;DHT22;19909;43.644;-79.438;2024-01-27T10:16:48;22.40;30.60
33580;DHT22;19909;43.644;-79.438;2024-01-27T10:19:18;22.30;30.60
33580;DHT22;19909;43.644;-79.438;2024-01-27T10:21:59;22.30;30.70
33580;DHT22;19909;43.644;-79.438;2024-01-27T10:24:26;22.20;30.80
33580;DHT22;19909;43.644;-79.438;2024-01-27T10:27:00;22.10;30.80
33580;DHT22;19909;43.644;-79.438;2024-01-27T10:29:26;22.10;30.90
33580;DHT22;19909;43.644;-79.438;2024-01-27T10:31:52;22.00;31.00
33580;DHT22;19909;43.644;-79.438;2024-01-27T10:34:21;21.90;31.00
33580;DHT22;19909;43.644;-79.438;2024-01-27T10:36:48;21.90;31.00
33580;DHT22;19909;43.644;-79.438;2024-01-27T10:39:22;21.90;31.00
33580;DHT22;19909;43.644;-79.438;2024-01-27T10:41:50;21.90;31.00
33580;DHT22;19909;43.644;-79.438;2024-01-27T10:44:18;22.00;31.50
33580;DHT22;19909;43.644;-79.438;2024-01-27T10:46:48;22.00;30.90
33580;DHT22;19909;43.644;-79.438;2024-01-27T10:49:19;22.20;30.80
33580;DHT22;19909;43.644;-79.438;2024-01-27T10:51:53;22.30;30.80
33580;DHT22;19909;43.644;-79.438;2024-01-27T10:54:24;22.40;30.60
33580;DHT22;19909;43.644;-79.438;2024-01-27T10:56:56;22.50;30.60
33580;DHT22;19909;43.644;-79.438;2024-01-27T10:59:23;22.40;30.60
33580;DHT22;19909;43.644;-79.438;2024-01-27T11:01:52;22.40;30.60
33580;DHT22;19909;43.644;-79.438;2024-01-27T11:04:20;22.30;30.70
33580;DHT22;19909;43.644;-79.438;2024-01-27T11:06:48;22.30;30.70
33580;DHT22;19909;43.644;-79.438;2024-01-27T11:09:15;22.20;30.70
33580;DHT22;19909;43.644;-79.438;2024-01-27T11:11:45;22.10;30.80
33580;DHT22;19909;43.644;-79.438;2024-01-27T11:14:12;22.10;31.50
33580;DHT22;19909;43.644;-79.438;2024-01-27T11:16:39;22.00;30.90
33580;DHT22;19909;43.644;-79.438;2024-01-27T11:19:11;21.90;30.90
33580;DHT22;19909;43.644;-79.438;2024-01-27T11:21:38;21.90;30.90
33580;DHT22;19909;43.644;-79.438;2024-01-27T11:24:18;22.00;30.90
33580;DHT22;19909;43.644;-79.438;2024-01-27T11:26:45;22.10;30.90
33580;DHT22;19909;43.644;-79.438;2024-01-27T11:29:11;22.10;30.80
33580;DHT22;19909;43.644;-79.438;2024-01-27T11:31:47;22.20;30.80
33580;DHT22;19909;43.644;-79.438;2024-01-27T11:34:18;22.40;31.30
33580;DHT22;19909;43.644;-79.438;2024-01-27T11:36:46;22.40;30.60
33580;DHT22;19909;43.644;-79.438;2024-01-27T11:39:25;22.40;30.70
33580;DHT22;19909;43.644;-79.438;2024-01-27T11:41:52;22.40;30.70
33580;DHT22;19909;43.644;-79.438;2024-01-27T11:44:19;22.30;30.70
33580;DHT22;19909;43.644;-79.438;2024-01-27T11:46:46;22.30;30.80
33580;DHT22;19909;43.644;-79.438;2024-01-27T11:49:15;22.20;30.80
33580;DHT22;19909;43.644;-79.438;2024-01-27T11:51:43;22.10;30.90
33580;DHT22;19909;43.644;-79.438;2024-01-27T11:54:09;22.10;30.90
33580;DHT22;19909;43.644;-79.438;2024-01-27T11:56:37;22.00;31.00
33580;DHT22;19909;43.644;-79.438;2024-01-27T11:59:03;21.90;31.00
33580;DHT22;19909;43.644;-79.438;2024-01-27T12:01:29;21.90;31.10
33580;DHT22;19909;43.644;-79.438;2024-01-27T12:03:56;21.80;31.00
33580;DHT22;19909;43.644;-79.438;2024-01-27T12:06:22;21.80;31.00
33580;DHT22;19909;43.644;-79.438;2024-01-27T12:08:49;21.90;31.00
33580;DHT22;19909;43.644;-79.438;2024-01-27T12:11:16;21.90;30.90
33580;DHT22;19909;43.644;-79.438;2024-01-27T12:13:43;22.10;30.90
33580;DHT22;19909;43.644;-79.438;2024-01-27T12:16:09;22.20;30.90
33580;DHT22;19909;43.644;-79.438;2024-01-27T12:18:36;22.30;30.80
33580;DHT22;19909;43.644;-79.438;2024-01-27T12:21:04;22.40;30.70
33580;DHT22;19909;43.644;-79.438;2024-01-27T12:23:30;22.50;30.60
33580;DHT22;19909;43.644;-79.438;2024-01-27T12:25:57;22.50;30.70
33580;DHT22;19909;43.644;-79.438;2024-01-27T12:28:23;22.40;30.60
33580;DHT22;19909;43.644;-79.438;2024-01-27T12:30:51;22.40;30.70
33580;DHT22;19909;43.644;-79.438;2024-01-27T12:33:18;22.30;30.80
33580;DHT22;19909;43.644;-79.438;2024-01-27T12:35:49;22.30;31.40
33580;DHT22;19909;43.644;-79.438;2024-01-27T12:38:18;22.20;30.80
33580;DHT22;19909;43.644;-79.438;2024-01-27T12:40:44;22.10;30.90
33580;DHT22;19909;43.644;-79.438;2024-01-27T12:43:11;22.00;30.90
33580;DHT22;19909;43.644;-79.438;2024-01-27T12:45:37;22.00;31.00
33580;DHT22;19909;43.644;-79.438;2024-01-27T12:48:04;22.00;31.10
33580;DHT22;19909;43.644;-79.438;2024-01-27T12:50:31;21.90;31.00
33580;DHT22;19909;43.644;-79.438;2024-01-27T12:52:59;21.90;30.90
33580;DHT22;19909;43.644;-79.438;2024-01-27T12:55:25;22.00;30.90
33580;DHT22;19909;43.644;-79.438;2024-01-27T12:57:52;22.10;30.90
33580;DHT22;19909;43.644;-79.438;2024-01-27T13:00:19;22.20;30.80
33580;DHT22;19909;43.644;-79.438;2024-01-27T13:02:46;22.30;30.80
33580;DHT22;19909;43.644;-79.438;2024-01-27T13:05:12;22.40;30.70
33580;DHT22;19909;43.644;-79.438;2024-01-27T13:07:39;22.50;30.60
33580;DHT22;19909;43.644;-79.438;2024-01-27T13:10:06;22.50;30.60
33580;DHT22;19909;43.644;-79.438;2024-01-27T13:12:33;22.40;30.60
33580;DHT22;19909;43.644;-79.438;2024-01-27T13:14:59;22.40;30.70
33580;DHT22;19909;43.644;-79.438;2024-01-27T13:17:27;22.30;30.70
33580;DHT22;19909;43.644;-79.438;2024-01-27T13:19:53;22.30;30.80
33580;DHT22;19909;43.644;-79.438;2024-01-27T13:22:20;22.20;30.80
33580;DHT22;19909;43.644;-79.438;2024-01-27T13:24:51;22.20;30.80
33580;DHT22;19909;43.644;-79.438;2024-01-27T13:27:18;22.10;30.90
33580;DHT22;19909;43.644;-79.438;2024-01-27T13:29:45;22.00;31.00
33580;DHT22;19909;43.644;-79.438;2024-01-27T13:32:12;21.90;31.00
33580;DHT22;19909;43.644;-79.438;2024-01-27T13:34:38;21.90;30.90
33580;DHT22;19909;43.644;-79.438;2024-01-27T13:37:06;21.90;30.90
33580;DHT22;19909;43.644;-79.438;2024-01-27T13:39:35;22.00;30.90
33580;DHT22;19909;43.644;-79.438;2024-01-27T13:42:02;22.10;30.90
33580;DHT22;19909;43.644;-79.438;2024-01-27T13:44:28;22.20;30.80
33580;DHT22;19909;43.644;-79.438;2024-01-27T13:46:55;22.30;30.80
33580;DHT22;19909;43.644;-79.438;2024-01-27T13:49:26;22.40;30.80
33580;DHT22;19909;43.644;-79.438;2024-01-27T13:51:52;22.50;30.60
33580;DHT22;19909;43.644;-79.438;2024-01-27T13:54:19;22.50;30.50
33580;DHT22;19909;43.644;-79.438;2024-01-27T13:56:45;22.50;30.60
33580;DHT22;19909;43.644;-79.438;2024-01-27T13:59:11;22.40;30.50
33580;DHT22;19909;43.644;-79.438;2024-01-27T14:01:38;22.40;30.60
33580;DHT22;19909;43.644;-79.438;2024-01-27T14:04:04;22.30;30.60
33580;DHT22;19909;43.644;-79.438;2024-01-27T14:06:31;22.30;30.70
33580;DHT22;19909;43.644;-79.438;2024-01-27T14:08:57;22.20;30.70
33580;DHT22;19909;43.644;-79.438;2024-01-27T14:11:23;22.10;30.80
33580;DHT22;19909;43.644;-79.438;2024-01-27T14:13:49;22.10;30.80
33580;DHT22;19909;43.644;-79.438;2024-01-27T14:16:15;22.00;30.80
33580;DHT22;19909;43.644;-79.438;2024-01-27T14:18:42;22.00;30.90
33580;DHT22;19909;43.644;-79.438;2024-01-27T14:21:08;21.90;30.90
33580;DHT22;19909;43.644;-79.438;2024-01-27T14:23:34;22.00;30.90
33580;DHT22;19909;43.644;-79.438;2024-01-27T14:26:01;22.00;30.90
33580;DHT22;19909;43.644;-79.438;2024-01-27T14:28:27;22.10;30.90
33580;DHT22;19909;43.644;-79.438;2024-01-27T14:30:53;22.20;30.80
33580;DHT22;19909;43.644;-79.438;2024-01-27T14:33:19;22.30;30.80
33580;DHT22;19909;43.644;-79.438;2024-01-27T14:35:47;22.50;30.80
33580;DHT22;19909;43.644;-79.438;2024-01-27T14:38:13;22.50;30.60
33580;DHT22;19909;43.644;-79.438;2024-01-27T14:40:40;22.50;30.60
33580;DHT22;19909;43.644;-79.438;2024-01-27T14:43:06;22.50;30.70
33580;DHT22;19909;43.644;-79.438;2024-01-27T14:45:39;22.50;30.70
33580;DHT22;19909;43.644;-79.438;2024-01-27T14:48:06;22.40;30.80
33580;DHT22;19909;43.644;-79.438;2024-01-27T14:50:32;22.30;30.80
33580;DHT22;19909;43.644;-79.438;2024-01-27T14:52:58;22.30;30.80
33580;DHT22;19909;43.644;-79.438;2024-01-27T14:55:27;22.20;30.80
33580;DHT22;19909;43.644;-79.438;2024-01-27T14:57:57;22.20;31.00
33580;DHT22;19909;43.644;-79.438;2024-01-27T15:00:23;22.10;31.00
33580;DHT22;19909;43.644;-79.438;2024-01-27T15:02:49;22.10;31.10